Estación Meteorológica Peña el Pijo (Robertgarden) [ 09/23/18 03:00:11 CEST ]

Fecha Hora Presion(HPa) Temp (°C) Humedad % Rocio (°C) Viento ( m/s) Direccion Lluvia 1Hora(mm) Lluvia 24H(mm) LLuvia Total(mm)
2018-Jul-19 01:01:47 1011.500 15.3 59 7.3         269.36
2018-Jul-19 02:01:40 1011.300 14.6 57 6.2         269.36
2018-Jul-19 03:01:59 1011.300 13.8 57 5.4         269.36
2018-Jul-19 04:02:14 1010.900 12.8 59 5.0         269.36
2018-Jul-19 05:01:54 1011.100 11.9 61 4.6         269.36
2018-Jul-19 06:02:19 1011.100 11.6 61 4.3         269.36
2018-Jul-19 07:01:43 1011.000 11.6 63 4.8         269.36
2018-Jul-19 08:01:53 1010.900 13.1 63 6.2         269.36
2018-Jul-19 09:01:44 1010.800 18.8 55 9.5         269.36
2018-Jul-19 10:01:55 1010.900 25.8 43 12.2         269.36
2018-Jul-19 11:01:42 1010.700 32.9 31 13.5         269.36
2018-Jul-19 12:01:36 1010.700 35.4 19 8.1         269.36
2018-Jul-19 13:01:52 1010.500 35.6 18 7.2         269.36
2018-Jul-19 14:01:46 1010.000 37.3 17 7.6         269.36
2018-Jul-19 15:01:36 1010.300 37.3 14 4.6         269.36
2018-Jul-19 16:01:39 1009.600 38.5 13 4.6         269.36
2018-Jul-19 17:01:56 1009.500 38.3 14 5.4 1.0 NNE     269.36
2018-Jul-19 18:01:24 1009.600 36.3 14 3.8 1.2 W     269.36
2018-Jul-19 19:01:45 1009.600 34.1 15 3.1         269.36
2018-Jul-19 20:01:49 1009.700 32.1 18 4.4         269.36
2018-Jul-19 21:01:45 1010.200 28.9 22 4.9         269.36
2018-Jul-19 22:01:51 1010.900 24.0 32 6.2         269.36
2018-Jul-19 23:01:45 1011.300 21.2 36 5.4         269.36

Temperatura Máxima:38°    Temperatura Mínima:11°
Presión Máxima:1011.500 Hpa    Presión Mínima:1009.500 Hpa


Volver